Gokhan Ucar

Scout - Besiktas
5 Dez 2027
Sonntag
Verarbeitung

Persönlichkeit

Anpassungsfähigkeit (6) Ehrgeiz (14) Kontroverse (8) Loyalität (13) Druck (11) Professionalität (5) Fairness (4) Temperament (20)

Profil

Trainerstil Demokratisch
Lizenz Nationale A
Entschlossenheit 10
Menschenführung 8
Motivation 10
Disziplin 15
Arbeitszufriedenheit
100%
Ermüdung
0%
Rolle Scout
Gehalt 112.7K p/W
Vertrag 14.03.2030

Leistung

Verhalten Gut
Trainingseffektivität
51%
Spielerentwicklung
55%
Verletzungsprävention
65%
Taktische Umsetzung
45%

Letzte Ereignisse

Nahm an einer Scouting-Besprechung teil 7T her
Nahm an einer Scouting-Besprechung teil 14T her
Nahm an einer Scouting-Besprechung teil 21T her
Nahm an einer Scouting-Besprechung teil 28T her
Nahm an einer Scouting-Besprechung teil 35T her
Nahm an einer Scouting-Besprechung teil 42T her
Nahm an einer Scouting-Besprechung teil 49T her
Nahm an einer Scouting-Besprechung teil 56T her

Aktuell beobachtet

47
Spieler Verein Status Fähigkeit Vertrauen Beobachtet Zuletzt beobachtet Letzte Stimme
Charis Charisis Sivasspor Aktiv 136 / 126 55% 1 16.08.2027 -
Maxence Lacroix Chelsea Aktiv 158 / 153 40% 4 31.05.2027 -
Exequiel Palacios Ipswich Town Aktiv 157 / 161 40% 1 31.05.2027 -
Adam Wharton Crystal Palace Aktiv 159 / 159 40% 2 17.05.2027 -
Nico O'Reilly Manchester City Aktiv 145 / 152 40% 1 17.05.2027 -
Ferdi Kadıoğlu Stoke City Aktiv 143 / 144 40% 4 15.05.2027 -
Khéphren Thuram Juventus Aktiv 169 / 160 40% 2 15.05.2027 -
James Garner Everton Aktiv 153 / 153 40% 2 10.05.2027 -
Arsenii Batahov Trabzonspor Aktiv 142 / 139 40% 1 10.05.2027 -
Habib Diarra Sunderland Aktiv 138 / 138 40% 4 05.05.2027 -
Wesley Fofana Chelsea Aktiv 161 / 164 40% 1 05.05.2027 -
André Wolverhampton Aktiv 151 / 140 40% 1 04.05.2027 -
Adrià Altimira Deportivo La Coruña Aktiv 135 / 131 40% 1 04.05.2027 -
Youri Baas Bournemouth Aktiv 154 / 150 40% 1 27.04.2027 -
Jordan Zemura Udinese Aktiv 131 / 134 40% 2 24.04.2027 -
Ethan Ampadu Leeds United Aktiv 136 / 148 40% 4 23.04.2027 -
Quinten Timber Crystal Palace Aktiv 142 / 149 40% 1 23.04.2027 -
António Silva Bournemouth Aktiv 142 / 143 40% 4 12.04.2027 -
Noah Sadiki Sunderland Aktiv 133 / 152 40% 2 12.04.2027 -
Murillo Nottingham Forest Aktiv 152 / 150 40% 2 10.04.2027 -
Jan Paul van Hecke Tottenham Aktiv 147 / 152 40% 2 08.04.2027 -
Yehor Yarmoliuk Brentford Aktiv 137 / 150 40% 2 08.04.2027 -
Éderson Atalanta Aktiv 160 / 162 40% 2 19.03.2027 -
Oumar Solet Udinese Aktiv 147 / 150 40% 1 19.03.2027 -
Brooke Norton-Cuffy Hull City Aktiv 142 / 138 40% 1 17.03.2027 -
Sidny Lopes Cabral Trabzonspor Aktiv 143 / 128 40% 3 11.03.2027 -
Hans Nicolussi Caviglia Parma Verloren 143 / 136 40% 1 11.03.2027 -
Florentino Luís Ipswich Town Aktiv 142 / 143 40% 3 10.03.2027 -
Alexandru Maxim Gaziantep Aktiv 120 / 124 55% 1 25.01.2027 -
Andrea Cambiaso Juventus Aktiv 152 / 154 40% 1 23.12.2026 -
Gedson Fernandes Spartak Moscow Aktiv 128 / 133 40% 2 09.12.2026 -
Curtis Jones Inter Aktiv 156 / 160 40% 1 05.12.2026 -
Evan N'Dicka AS Roma Aktiv 167 / 154 40% 1 02.12.2026 -
Diogo Dalot Manchester United Aktiv 144 / 148 40% 3 26.11.2026 -
Lewis Hall Newcastle United Aktiv 152 / 151 40% 1 26.11.2026 -
Ian Maatsen Aston Villa Aktiv 144 / 148 40% 1 25.11.2026 -
Tino Livramento Newcastle United Aktiv 157 / 156 40% 2 24.11.2026 -
Rayan Aït-Nouri Manchester City Aktiv 144 / 142 40% 1 24.11.2026 -
Pedro Porro Tottenham Aktiv 150 / 143 40% 1 23.11.2026 -
Dara O'Shea Ipswich Town Aktiv 133 / 135 40% 1 21.11.2026 -
Sven Botman Newcastle United Aktiv 149 / 161 40% 2 16.11.2026 -
Anton Stach Leeds United Aktiv 158 / 146 40% 1 05.11.2026 -
Gustavo Puerta Olympiacos Aktiv 135 / 143 40% 2 23.10.2026 -
Sampson Dweh Lokomotiv Moscow Aktiv 131 / 138 40% 3 23.10.2026 -
Mohamed Simakan Al-Nassr Aktiv 145 / 138 40% 3 08.10.2026 -
Kings Kangwa Panathinaikos Aktiv 128 / 135 40% 1 07.10.2026 -
Azzedine Ounahi Panathinaikos Aktiv 147 / 134 40% 1 30.09.2026 -